Time;durP1;ratioP1;P1;durP2;ratioP2;P2;SDS_P1;SDS_P2;PMS_P1;PMS_P2;Temp;Humidity;BMP_temperature;BMP_pressure;BME280_temperature;BME280_humidity;BME280_pressure;Samples;Min_cycle;Max_cycle;Signal;HPM_P1;HPM_P2
2022/03/17 00:01:38;;;;;;;28.90;19.75;;;8.40;93.90;;;;;;4930563;29;20028;-78
2022/03/17 00:04:05;;;;;;;21.05;18.90;;;8.30;94.00;;;;;;4933588;29;20039;-78
2022/03/17 00:06:31;;;;;;;23.65;21.30;;;8.30;94.80;;;;;;4929797;29;20393;-78
2022/03/17 00:08:57;;;;;;;20.52;18.50;;;8.20;94.40;;;;;;4942717;29;20039;-78
2022/03/17 00:11:23;;;;;;;25.73;22.95;;;8.30;95.00;;;;;;4941769;29;20039;-78
2022/03/17 00:13:50;;;;;;;22.67;19.02;;;8.30;94.40;;;;;;4934952;29;20068;-78
2022/03/17 00:16:16;;;;;;;20.30;17.48;;;8.30;95.30;;;;;;4934632;29;20036;-79
2022/03/17 00:18:42;;;;;;;24.08;21.45;;;8.30;95.30;;;;;;4931850;29;20042;-79
2022/03/17 00:21:08;;;;;;;19.75;17.70;;;8.10;95.50;;;;;;4934320;29;20473;-78
2022/03/17 00:23:34;;;;;;;22.27;20.05;;;8.00;96.90;;;;;;4933326;29;20039;-78
2022/03/17 00:26:01;;;;;;;25.02;19.75;;;7.90;98.30;;;;;;4930022;29;20035;-80
2022/03/17 00:28:27;;;;;;;23.83;18.17;;;7.80;99.40;;;;;;4934207;29;20055;-78
2022/03/17 00:30:53;;;;;;;23.15;19.08;;;7.80;99.90;;;;;;4935221;29;20032;-78
2022/03/17 00:33:19;;;;;;;19.83;17.90;;;7.70;99.90;;;;;;4933310;29;20469;-79
2022/03/17 00:35:46;;;;;;;26.95;20.00;;;7.60;99.90;;;;;;4933176;29;20480;-78
2022/03/17 00:38:16;;;;;;;18.83;16.92;;;7.50;99.90;;;;;;4934832;29;20401;-79
2022/03/17 00:40:45;;;;;;;19.83;17.83;;;7.50;99.90;;;;;;4938863;29;20039;-78
2022/03/17 00:43:12;;;;;;;18.85;16.98;;;7.50;99.90;;;;;;4933520;29;20044;-78
2022/03/17 00:45:41;;;;;;;21.25;18.98;;;7.50;99.90;;;;;;4938385;29;20035;-78
2022/03/17 00:48:07;;;;;;;18.85;17.20;;;7.40;99.90;;;;;;4934469;29;20040;-78
2022/03/17 00:50:34;;;;;;;20.48;18.52;;;7.30;99.90;;;;;;4921188;29;20032;-77
2022/03/17 00:53:01;;;;;;;19.75;17.92;;;7.30;99.90;;;;;;4936054;29;20040;-78
2022/03/17 00:55:28;;;;;;;22.83;20.77;;;7.30;99.90;;;;;;4934158;29;20485;-78
2022/03/17 00:57:54;;;;;;;23.00;20.48;;;7.20;99.90;;;;;;4933462;29;20043;-78
2022/03/17 01:00:21;;;;;;;21.83;19.95;;;7.20;99.90;;;;;;4929723;29;20266;-78
2022/03/17 01:02:53;;;;;;;23.20;20.90;;;7.20;99.90;;;;;;4928412;29;20052;-79
2022/03/17 01:05:21;;;;;;;19.95;17.90;;;7.20;99.90;;;;;;4937563;29;20129;-78
2022/03/17 01:07:49;;;;;;;22.55;20.42;;;7.20;99.90;;;;;;4928146;29;20051;-81
2022/03/17 01:10:17;;;;;;;24.05;21.30;;;7.20;99.90;;;;;;4937768;29;20106;-79
2022/03/17 01:12:48;;;;;;;20.00;17.98;;;7.20;99.90;;;;;;4939573;28;20062;-78
2022/03/17 01:15:17;;;;;;;24.65;21.27;;;7.30;99.90;;;;;;4938902;29;20401;-78
2022/03/17 01:17:43;;;;;;;26.55;22.50;;;7.20;99.90;;;;;;4936381;29;20032;-79
2022/03/17 01:20:11;;;;;;;21.48;19.48;;;7.20;99.90;;;;;;4944094;29;20066;-79
2022/03/17 01:22:38;;;;;;;21.73;19.65;;;7.30;99.90;;;;;;4939407;29;20038;-78
2022/03/17 01:25:05;;;;;;;23.05;21.00;;;7.20;99.90;;;;;;4942796;29;20040;-79
2022/03/17 01:27:34;;;;;;;22.60;20.48;;;7.20;99.90;;;;;;4926647;29;20501;-78
2022/03/17 01:30:02;;;;;;;21.27;19.40;;;7.20;99.90;;;;;;4943677;29;20474;-80
2022/03/17 01:32:28;;;;;;;21.52;19.63;;;7.20;99.90;;;;;;4929231;29;20488;-79
2022/03/17 01:34:55;;;;;;;21.23;19.38;;;7.20;99.90;;;;;;4941636;29;20036;-79
2022/03/17 01:37:21;;;;;;;22.35;20.15;;;7.10;99.90;;;;;;4925862;29;20055;-79
2022/03/17 01:39:48;;;;;;;23.38;21.27;;;7.10;99.90;;;;;;4941851;29;20397;-78
2022/03/17 01:42:15;;;;;;;22.42;20.05;;;7.10;99.90;;;;;;4939089;29;20035;-81
2022/03/17 01:44:41;;;;;;;21.85;19.75;;;7.20;99.90;;;;;;4938346;29;20055;-79
2022/03/17 01:49:54;;;;;;;23.08;20.77;;;7.20;99.90;;;;;;4942282;29;20445;-78
2022/03/17 01:52:20;;;;;;;21.45;19.35;;;7.10;99.90;;;;;;4941154;29;20040;-79
2022/03/17 01:54:46;;;;;;;21.77;19.90;;;7.10;99.90;;;;;;4941961;29;20047;-79
2022/03/17 01:57:13;;;;;;;23.15;20.85;;;7.10;99.90;;;;;;4943921;29;20031;-78
2022/03/17 01:59:40;;;;;;;22.20;20.05;;;7.10;99.90;;;;;;4940262;29;20032;-79
2022/03/17 02:02:09;;;;;;;23.73;21.52;;;7.10;99.90;;;;;;4943796;29;20032;-79
2022/03/17 02:04:36;;;;;;;21.10;19.30;;;7.10;99.90;;;;;;4952263;29;20034;-80
2022/03/17 02:07:05;;;;;;;21.92;20.05;;;7.10;99.90;;;;;;4944262;29;20066;-81
2022/03/17 02:09:33;;;;;;;23.98;21.80;;;7.10;99.90;;;;;;4942449;29;20040;-79
2022/03/17 02:14:53;;;;;;;23.73;21.52;;;7.10;99.90;;;;;;4941806;29;20454;-79
2022/03/17 02:17:22;;;;;;;24.88;22.30;;;7.00;99.90;;;;;;4940691;29;20398;-79
2022/03/17 02:19:49;;;;;;;25.02;22.67;;;7.00;99.90;;;;;;4941457;29;20035;-79
2022/03/17 02:22:18;;;;;;;24.23;21.92;;;7.00;99.90;;;;;;4936952;29;20044;-79
2022/03/17 02:27:38;;;;;;;29.30;23.58;;;7.00;99.90;;;;;;4925253;29;20043;-78
2022/03/17 02:30:07;;;;;;;26.20;23.60;;;7.00;99.90;;;;;;4940126;29;20031;-80
2022/03/17 02:32:33;;;;;;;26.27;23.77;;;7.00;99.90;;;;;;4920906;29;20482;-78
2022/03/17 02:35:13;;;;;;;26.48;24.10;;;7.00;99.90;;;;;;4939436;29;20039;-79
2022/03/17 02:37:40;;;;;;;25.30;22.88;;;7.00;99.90;;;;;;4938940;29;20053;-79
2022/03/17 02:40:08;;;;;;;26.15;23.58;;;7.00;99.90;;;;;;4938555;29;20028;-80
2022/03/17 02:42:37;;;;;;;24.73;22.25;;;7.00;99.90;;;;;;4941916;29;20032;-79
2022/03/17 02:45:04;;;;;;;26.98;24.45;;;7.00;99.90;;;;;;4921374;29;20043;-83
2022/03/17 02:47:31;;;;;;;23.77;21.55;;;6.90;99.90;;;;;;4939915;29;20036;-81
2022/03/17 02:49:57;;;;;;;24.73;22.55;;;6.90;99.90;;;;;;4924054;29;20028;-79
2022/03/17 02:52:25;;;;;;;25.13;22.75;;;6.90;99.90;;;;;;4922339;29;20031;-78
2022/03/17 02:54:52;;;;;;;25.55;23.25;;;6.90;99.90;;;;;;4938384;29;20476;-79
2022/03/17 02:57:19;;;;;;;27.52;24.52;;;6.90;99.90;;;;;;4939388;29;20047;-79
2022/03/17 02:59:51;;;;;;;29.55;23.13;;;6.90;99.90;;;;;;4931088;29;20044;-78
2022/03/17 03:02:17;;;;;;;25.33;22.40;;;6.90;99.90;;;;;;4934794;29;20043;-79
2022/03/17 03:04:44;;;;;;;25.83;23.63;;;6.90;99.90;;;;;;4941501;29;20039;-79
2022/03/17 03:07:10;;;;;;;27.10;24.63;;;6.90;99.90;;;;;;4913068;29;20058;-78
2022/03/17 03:09:36;;;;;;;26.67;22.98;;;6.80;99.90;;;;;;4908209;29;20040;-78
2022/03/17 03:12:03;;;;;;;29.15;26.10;;;6.80;99.90;;;;;;4939516;29;20071;-79
2022/03/17 03:14:30;;;;;;;28.88;24.65;;;6.80;99.90;;;;;;4907885;29;20470;-79
2022/03/17 03:16:57;;;;;;;29.25;25.52;;;6.90;99.90;;;;;;4942151;29;20075;-79
2022/03/17 03:19:23;;;;;;;31.58;28.23;;;6.90;99.90;;;;;;4936641;29;20405;-80
2022/03/17 03:21:50;;;;;;;26.98;24.52;;;6.80;99.90;;;;;;4940804;29;20059;-79
2022/03/17 03:24:16;;;;;;;28.73;25.85;;;6.90;99.90;;;;;;4934403;29;20055;-80
2022/03/17 03:26:43;;;;;;;28.60;25.90;;;6.90;99.90;;;;;;4927302;29;20047;-79
2022/03/17 03:29:23;;;;;;;28.25;25.65;;;6.90;99.90;;;;;;4934371;29;20040;-79
2022/03/17 03:31:51;;;;;;;26.55;24.30;;;6.90;99.90;;;;;;4941603;29;20039;-79
2022/03/17 03:34:17;;;;;;;28.73;26.27;;;6.90;99.90;;;;;;4940570;29;20043;-80
2022/03/17 03:39:28;;;;;;;27.35;24.77;;;6.90;99.90;;;;;;4940483;29;20397;-82
2022/03/17 03:41:54;;;;;;;31.20;28.40;;;6.90;99.90;;;;;;4933555;29;20048;-79
2022/03/17 03:44:21;;;;;;;33.15;30.20;;;6.90;99.90;;;;;;4938846;29;20032;-78
2022/03/17 03:46:47;;;;;;;32.85;29.67;;;6.90;99.90;;;;;;4939327;29;20405;-78
2022/03/17 03:49:13;;;;;;;31.77;28.88;;;6.90;99.90;;;;;;4939657;29;20055;-78
2022/03/17 03:51:40;;;;;;;32.00;29.15;;;6.90;99.90;;;;;;4939716;29;20036;-78
2022/03/17 03:54:18;;;;;;;33.47;30.42;;;7.00;99.90;;;;;;4936543;29;20024;-78
2022/03/17 03:56:47;;;;;;;32.45;29.42;;;7.10;99.90;;;;;;4939185;29;20035;-78
2022/03/17 03:59:21;;;;;;;34.53;30.23;;;7.10;99.90;;;;;;4893857;29;20059;-78
2022/03/17 04:01:54;;;;;;;35.33;31.75;;;7.20;99.90;;;;;;4928110;29;20037;-79
2022/03/17 04:04:20;;;;;;;33.90;30.48;;;7.20;99.90;;;;;;4933148;29;20028;-78
2022/03/17 04:06:49;;;;;;;33.60;30.23;;;7.10;99.90;;;;;;4939745;29;20486;-78
2022/03/17 04:09:19;;;;;;;34.90;31.33;;;7.10;99.90;;;;;;4935864;29;20047;-78
2022/03/17 04:11:46;;;;;;;32.38;29.08;;;7.20;99.90;;;;;;4935413;29;20031;-79
2022/03/17 04:14:14;;;;;;;32.83;29.30;;;7.20;99.90;;;;;;4929100;29;20043;-79
2022/03/17 04:16:40;;;;;;;29.15;26.35;;;7.20;99.90;;;;;;4935496;29;20031;-79
2022/03/17 04:19:07;;;;;;;30.10;27.20;;;7.10;99.90;;;;;;4928362;29;20058;-79
2022/03/17 04:21:33;;;;;;;32.30;28.77;;;7.20;99.90;;;;;;4935396;29;20028;-78
2022/03/17 04:23:59;;;;;;;29.65;26.55;;;7.10;99.90;;;;;;4935681;29;20028;-81
2022/03/17 04:26:26;;;;;;;30.58;27.55;;;7.10;99.90;;;;;;4935911;29;20039;-78
2022/03/17 04:28:53;;;;;;;37.30;33.35;;;7.00;99.90;;;;;;4940330;29;20042;-78
2022/03/17 04:31:20;;;;;;;33.22;30.08;;;7.10;99.90;;;;;;4941552;29;20040;-79
2022/03/17 04:33:47;;;;;;;31.67;28.67;;;7.10;99.90;;;;;;4938930;29;20036;-79
2022/03/17 04:36:14;;;;;;;29.83;26.88;;;7.10;99.90;;;;;;4933041;29;20032;-79
2022/03/17 04:38:41;;;;;;;30.80;27.80;;;7.10;99.90;;;;;;4934670;29;20052;-79
2022/03/17 04:41:08;;;;;;;36.50;32.80;;;7.10;99.90;;;;;;4932742;29;20031;-78
2022/03/17 04:43:34;;;;;;;37.15;33.42;;;7.20;99.90;;;;;;4934189;29;20047;-78
2022/03/17 04:46:01;;;;;;;38.35;34.58;;;7.30;99.90;;;;;;4932789;29;20028;-78
2022/03/17 04:48:27;;;;;;;34.13;30.65;;;7.30;99.90;;;;;;4933999;29;20042;-78
2022/03/17 04:50:53;;;;;;;33.83;30.80;;;7.30;99.90;;;;;;4935440;29;20032;-78
2022/03/17 04:53:32;;;;;;;35.00;31.63;;;7.30;99.90;;;;;;4934694;29;20035;-79
2022/03/17 04:56:11;;;;;;;33.50;30.27;;;7.30;99.90;;;;;;4933346;29;20032;-78
2022/03/17 04:58:40;;;;;;;31.95;28.67;;;7.30;99.90;;;;;;4935726;29;20058;-78
2022/03/17 05:01:07;;;;;;;32.88;29.70;;;7.20;99.90;;;;;;4937415;29;20039;-79
2022/03/17 05:03:34;;;;;;;33.10;30.13;;;7.20;99.90;;;;;;4932588;29;20039;-79
2022/03/17 05:06:02;;;;;;;35.38;29.38;;;7.20;99.90;;;;;;4936646;29;20042;-79
2022/03/17 05:08:28;;;;;;;34.17;31.00;;;7.10;99.90;;;;;;4935489;29;20047;-79
2022/03/17 05:10:54;;;;;;;33.08;30.05;;;7.10;99.90;;;;;;4938180;29;20038;-78
2022/03/17 05:13:22;;;;;;;35.13;31.55;;;7.10;99.90;;;;;;4937691;29;20032;-79
2022/03/17 05:15:49;;;;;;;34.83;31.10;;;7.10;99.90;;;;;;4935999;29;20422;-79
2022/03/17 05:18:16;;;;;;;34.72;31.30;;;7.00;99.90;;;;;;4937899;29;20044;-79
2022/03/17 05:20:42;;;;;;;39.78;33.70;;;7.10;99.90;;;;;;4936273;29;20039;-79
2022/03/17 05:23:13;;;;;;;38.30;34.45;;;7.10;99.90;;;;;;4936374;29;20036;-82
2022/03/17 05:25:40;;;;;;;34.60;31.42;;;7.10;99.90;;;;;;4918788;29;20031;-79
2022/03/17 05:28:08;;;;;;;36.63;33.20;;;7.10;99.90;;;;;;4934587;29;20411;-79
2022/03/17 05:30:35;;;;;;;35.67;32.17;;;7.10;99.90;;;;;;4937954;29;20040;-78
2022/03/17 05:33:02;;;;;;;34.92;31.50;;;7.20;99.90;;;;;;4935341;29;20393;-79
2022/03/17 05:35:29;;;;;;;32.95;29.92;;;7.20;99.90;;;;;;4934769;29;20039;-79
2022/03/17 05:37:56;;;;;;;34.00;30.58;;;7.20;99.90;;;;;;4920466;29;20028;-78
2022/03/17 05:40:23;;;;;;;34.35;30.90;;;7.20;99.90;;;;;;4937889;29;20047;-82
2022/03/17 05:42:54;;;;;;;33.55;30.55;;;7.20;99.90;;;;;;4930112;29;20040;-77
2022/03/17 05:45:23;;;;;;;33.03;29.92;;;7.20;99.90;;;;;;4936568;29;20031;-78
2022/03/17 05:47:51;;;;;;;34.40;30.70;;;7.10;99.90;;;;;;4937518;29;20028;-77
2022/03/17 05:50:20;;;;;;;37.30;33.58;;;7.10;99.90;;;;;;4933991;29;20374;-77
2022/03/17 05:52:47;;;;;;;36.70;33.35;;;7.10;99.90;;;;;;4929135;29;20039;-77
2022/03/17 05:55:16;;;;;;;39.97;34.03;;;7.20;99.90;;;;;;4935785;29;20027;-77
2022/03/17 05:57:48;;;;;;;39.08;35.20;;;7.20;99.90;;;;;;4936092;29;20043;-77
2022/03/17 06:00:17;;;;;;;39.65;35.53;;;7.20;99.90;;;;;;4934558;29;20048;-77
2022/03/17 06:02:44;;;;;;;41.83;37.72;;;7.20;99.90;;;;;;4936249;29;20040;-77
2022/03/17 06:05:13;;;;;;;40.13;35.45;;;7.20;99.90;;;;;;4935793;29;20042;-77
2022/03/17 06:07:41;;;;;;;37.63;34.15;;;7.20;99.90;;;;;;4935322;29;20442;-77
2022/03/17 06:10:10;;;;;;;36.15;32.65;;;7.20;99.90;;;;;;4926992;29;20355;-77
2022/03/17 06:12:36;;;;;;;33.60;30.38;;;7.20;99.90;;;;;;4934374;29;20031;-78
2022/03/17 06:15:04;;;;;;;34.25;30.67;;;7.20;99.90;;;;;;4932054;29;20389;-78
2022/03/17 06:17:40;;;;;;;33.55;30.17;;;7.20;99.90;;;;;;4938279;29;20028;-77
2022/03/17 06:20:09;;;;;;;33.45;30.25;;;7.20;99.90;;;;;;4935618;29;20036;-78
2022/03/17 06:22:40;;;;;;;32.78;29.05;;;7.30;99.90;;;;;;4935184;29;20036;-78
2022/03/17 06:25:09;;;;;;;31.35;28.33;;;7.30;99.90;;;;;;4932429;29;20039;-79
2022/03/17 06:27:35;;;;;;;31.75;28.77;;;7.20;99.90;;;;;;4933832;29;20031;-79
2022/03/17 06:30:04;;;;;;;29.90;27.17;;;7.30;99.90;;;;;;4931459;29;20055;-77
2022/03/17 06:32:31;;;;;;;35.20;31.85;;;7.40;99.90;;;;;;4934936;29;20034;-77
2022/03/17 06:34:57;;;;;;;35.63;32.20;;;7.40;99.90;;;;;;4935011;29;20398;-77
2022/03/17 06:37:23;;;;;;;33.67;30.67;;;7.40;99.90;;;;;;4919001;29;20035;-77
2022/03/17 06:39:49;;;;;;;33.88;30.40;;;7.40;99.90;;;;;;4936436;29;20389;-77
2022/03/17 06:42:16;;;;;;;33.83;30.70;;;7.50;99.90;;;;;;4936080;29;20039;-78
2022/03/17 06:44:42;;;;;;;34.42;30.67;;;7.50;99.90;;;;;;4934106;29;20040;-78
2022/03/17 06:47:08;;;;;;;29.88;26.73;;;7.50;99.90;;;;;;4936610;29;20500;-78
2022/03/17 06:49:35;;;;;;;33.45;29.90;;;7.50;99.90;;;;;;4932370;29;20035;-77
2022/03/17 06:52:01;;;;;;;34.13;30.70;;;7.60;99.90;;;;;;4931781;29;20050;-77
2022/03/17 06:54:27;;;;;;;36.15;32.83;;;7.70;99.90;;;;;;4935049;29;20051;-80
2022/03/17 06:56:53;;;;;;;35.60;32.22;;;7.70;99.90;;;;;;4928498;29;20024;-78
2022/03/17 06:59:19;;;;;;;38.15;34.42;;;7.80;99.90;;;;;;4935391;29;20051;-78
2022/03/17 07:01:45;;;;;;;36.85;32.97;;;7.90;99.90;;;;;;4934236;29;20035;-78
2022/03/17 07:04:12;;;;;;;35.60;32.13;;;8.00;99.90;;;;;;4930638;29;20035;-78
2022/03/17 07:06:38;;;;;;;37.92;34.08;;;8.10;99.90;;;;;;4929333;28;20048;-81
2022/03/17 07:09:04;;;;;;;37.80;33.65;;;8.10;99.90;;;;;;4932468;28;20051;-77
2022/03/17 07:11:30;;;;;;;37.38;33.17;;;8.20;99.90;;;;;;4931392;29;20043;-81
2022/03/17 07:13:57;;;;;;;38.08;34.13;;;8.30;99.90;;;;;;4933796;29;20469;-77
2022/03/17 07:16:23;;;;;;;38.80;34.85;;;8.40;99.90;;;;;;4934945;29;20055;-77
2022/03/17 07:18:49;;;;;;;38.67;34.55;;;8.40;99.90;;;;;;4935661;29;20054;-78
2022/03/17 07:21:16;;;;;;;42.17;35.13;;;8.40;99.90;;;;;;4935405;29;20385;-78
2022/03/17 07:23:42;;;;;;;38.38;34.60;;;8.50;99.90;;;;;;4934833;29;20031;-81
2022/03/17 07:26:09;;;;;;;38.00;34.15;;;8.60;99.90;;;;;;4934529;29;20059;-78
2022/03/17 07:28:35;;;;;;;39.13;35.15;;;8.70;99.90;;;;;;4937424;29;20067;-77
2022/03/17 07:31:01;;;;;;;38.00;33.88;;;8.70;99.90;;;;;;4936382;29;20039;-77
2022/03/17 07:33:28;;;;;;;38.15;33.45;;;8.70;99.90;;;;;;4934397;29;20031;-78
2022/03/17 07:35:54;;;;;;;34.83;31.52;;;8.80;99.90;;;;;;4925978;29;20489;-78
2022/03/17 07:38:20;;;;;;;37.90;33.38;;;8.90;99.90;;;;;;4934136;29;20071;-77
2022/03/17 07:40:46;;;;;;;38.38;34.55;;;8.90;99.90;;;;;;4932270;29;20040;-77
2022/03/17 07:43:12;;;;;;;38.25;34.22;;;8.90;99.90;;;;;;4917098;29;20405;-80
2022/03/17 07:46:03;;;;;;;41.25;36.50;;;8.90;99.90;;;;;;4929590;29;20051;-77
2022/03/17 07:49:01;;;;;;;37.85;33.47;;;8.90;99.90;;;;;;4930469;29;20043;-77
2022/03/17 07:51:36;;;;;;;43.97;34.30;;;9.00;99.90;;;;;;4933254;29;20480;-77
2022/03/17 07:54:02;;;;;;;38.17;33.53;;;9.00;99.90;;;;;;4916436;29;20047;-77
2022/03/17 07:56:29;;;;;;;38.50;32.97;;;9.10;99.60;;;;;;4933407;29;20050;-78
2022/03/17 07:58:55;;;;;;;40.25;34.25;;;9.10;99.30;;;;;;4930659;29;20059;-77
2022/03/17 08:01:24;;;;;;;37.75;33.65;;;9.10;99.00;;;;;;4928924;29;20469;-78
2022/03/17 08:03:54;;;;;;;39.00;34.60;;;9.20;98.70;;;;;;4932896;29;20496;-79
2022/03/17 08:06:21;;;;;;;;;;;9.20;98.60;;;;;;4935711;29;20031;-78
2022/03/17 08:08:48;;;;;;;35.60;31.90;;;9.20;98.20;;;;;;4933148;29;19915;-78
2022/03/17 08:11:14;;;;;;;45.22;34.35;;;9.30;97.30;;;;;;4930599;29;20040;-78
2022/03/17 08:13:41;;;;;;;42.53;33.85;;;9.30;97.80;;;;;;4933509;29;20032;-78
2022/03/17 08:16:10;;;;;;;44.67;35.50;;;9.40;97.50;;;;;;4934173;29;20054;-77
2022/03/17 08:18:37;;;;;;;41.97;33.90;;;9.40;97.40;;;;;;4933147;29;20031;-77
2022/03/17 08:21:03;;;;;;;39.38;35.25;;;9.40;96.90;;;;;;4909568;29;20044;-77
2022/03/17 08:23:29;;;;;;;38.22;32.97;;;9.50;96.50;;;;;;4927052;29;20039;-77
2022/03/17 08:25:55;;;;;;;39.67;32.83;;;9.60;95.80;;;;;;4932272;29;20043;-77
2022/03/17 08:28:22;;;;;;;37.22;33.35;;;9.60;95.30;;;;;;4929845;29;20040;-77
2022/03/17 08:30:50;;;;;;;36.50;32.28;;;9.60;94.80;;;;;;4929855;29;20058;-76
2022/03/17 08:33:18;;;;;;;41.25;34.25;;;9.70;94.20;;;;;;4933660;29;20461;-77
2022/03/17 08:35:45;;;;;;;37.78;34.00;;;9.80;93.90;;;;;;4933004;29;20040;-77
2022/03/17 08:38:12;;;;;;;34.97;31.17;;;9.90;93.30;;;;;;4929091;29;20036;-77
2022/03/17 08:40:41;;;;;;;40.63;35.40;;;10.00;93.10;;;;;;4934413;29;20039;-78
2022/03/17 08:43:09;;;;;;;38.42;34.03;;;10.00;92.90;;;;;;4929468;29;20043;-87
2022/03/17 08:51:12;;;;;;;38.80;34.67;;;10.20;90.60;;;;;;4939916;29;20504;-78
2022/03/17 08:53:38;;;;;;;37.72;33.63;;;10.30;90.60;;;;;;4939179;29;20039;-82
2022/03/17 08:56:05;;;;;;;35.47;31.70;;;10.20;90.40;;;;;;4917664;29;20032;-78
2022/03/17 08:58:32;;;;;;;35.17;31.40;;;10.30;89.00;;;;;;4931526;29;20032;-78
2022/03/17 09:01:00;;;;;;;35.38;31.65;;;10.20;89.00;;;;;;4934153;29;20469;-77
2022/03/17 09:03:29;;;;;;;40.00;32.38;;;10.20;88.90;;;;;;4928330;29;20036;-77
2022/03/17 09:06:00;;;;;;;36.60;32.88;;;10.30;88.70;;;;;;4930572;29;20032;-77
2022/03/17 09:08:27;;;;;;;36.08;31.45;;;10.50;87.70;;;;;;4925852;29;20048;-77
2022/03/17 09:10:55;;;;;;;34.53;30.92;;;10.60;86.40;;;;;;4932349;29;20051;-77
2022/03/17 09:13:26;;;;;;;37.03;32.38;;;10.60;84.20;;;;;;4931354;29;20060;-79
2022/03/17 09:15:53;;;;;;;35.67;31.83;;;10.70;84.90;;;;;;4933081;29;20039;-77
2022/03/17 09:18:21;;;;;;;36.85;33.03;;;10.70;84.30;;;;;;4933726;29;20039;-77
2022/03/17 09:20:48;;;;;;;40.20;31.80;;;10.70;83.60;;;;;;4930853;29;20082;-77
2022/03/17 09:23:14;;;;;;;36.22;32.45;;;10.80;84.30;;;;;;4930065;29;20058;-78
2022/03/17 09:25:41;;;;;;;38.63;31.20;;;10.80;83.70;;;;;;4932280;29;20462;-78
2022/03/17 09:28:07;;;;;;;35.25;31.38;;;10.80;83.90;;;;;;4934135;29;20346;-77
2022/03/17 09:30:34;;;;;;;44.83;31.33;;;10.80;83.50;;;;;;4933245;29;20055;-77
2022/03/17 09:33:03;;;;;;;42.33;34.53;;;10.80;83.60;;;;;;4932844;29;20052;-77
2022/03/17 09:35:29;;;;;;;38.85;32.05;;;10.70;84.60;;;;;;4933500;29;20035;-77
2022/03/17 09:37:55;;;;;;;35.92;32.00;;;10.70;86.00;;;;;;4940239;29;20042;-77
2022/03/17 09:40:21;;;;;;;36.20;32.13;;;10.80;85.60;;;;;;4940647;29;20054;-77
2022/03/17 09:42:48;;;;;;;36.65;32.78;;;10.90;84.80;;;;;;4939902;29;20044;-77
2022/03/17 09:45:15;;;;;;;41.00;33.38;;;10.90;83.00;;;;;;4934603;29;20054;-78
2022/03/17 09:47:44;;;;;;;37.22;32.70;;;10.80;83.10;;;;;;4932469;29;20036;-77
2022/03/17 09:50:14;;;;;;;44.80;32.83;;;10.90;82.90;;;;;;4926657;29;20032;-78
2022/03/17 09:52:42;;;;;;;35.83;32.00;;;10.90;83.10;;;;;;4925519;29;20055;-78
2022/03/17 09:55:10;;;;;;;36.13;32.45;;;10.90;83.30;;;;;;4932933;29;20310;-77
2022/03/17 09:57:46;;;;;;;36.78;32.78;;;10.90;83.10;;;;;;4934140;29;20028;-77
2022/03/17 10:00:13;;;;;;;37.00;33.40;;;10.70;82.90;;;;;;4928824;29;20052;-77
2022/03/17 10:02:40;;;;;;;37.70;33.85;;;10.80;83.00;;;;;;4937329;29;20432;-77
2022/03/17 10:05:11;;;;;;;37.50;33.70;;;10.90;82.90;;;;;;4930304;29;20485;-78
2022/03/17 10:07:39;;;;;;;35.60;31.38;;;11.10;82.60;;;;;;4936691;29;20052;-77
2022/03/17 10:10:06;;;;;;;35.70;31.27;;;11.10;81.40;;;;;;4933546;29;20397;-79
2022/03/17 10:12:32;;;;;;;40.95;32.72;;;11.30;80.90;;;;;;4926963;29;20469;-78
2022/03/17 10:14:59;;;;;;;34.95;30.55;;;11.50;80.90;;;;;;4935631;29;20042;-76
2022/03/17 10:17:37;;;;;;;34.20;30.10;;;11.70;79.30;;;;;;4936384;29;20047;-78
2022/03/17 10:20:28;;;;;;;37.55;29.23;;;11.60;77.90;;;;;;4931636;29;20043;-78
2022/03/17 10:22:57;;;;;;;34.45;30.38;;;11.50;77.70;;;;;;4934669;29;20054;-78
2022/03/17 10:25:25;;;;;;;35.45;31.80;;;11.50;77.90;;;;;;4935025;29;20715;-78
2022/03/17 10:27:55;;;;;;;34.97;29.40;;;11.60;77.10;;;;;;4936722;29;20043;-78
2022/03/17 10:30:33;;;;;;;33.80;29.50;;;11.80;76.70;;;;;;4936510;29;20044;-78
2022/03/17 10:33:01;;;;;;;32.47;29.15;;;11.60;75.70;;;;;;4936771;29;20047;-78
2022/03/17 10:35:36;;;;;;;33.92;26.05;;;11.70;75.80;;;;;;4934539;29;20032;-78
2022/03/17 10:38:14;;;;;;;31.65;27.23;;;11.70;75.60;;;;;;4931611;29;20039;-78
2022/03/17 10:40:41;;;;;;;28.35;25.33;;;11.80;75.10;;;;;;4934877;29;20044;-78
2022/03/17 10:43:24;;;;;;;35.63;26.65;;;11.80;74.60;;;;;;4936048;29;20382;-83
2022/03/17 10:46:20;;;;;;;35.50;26.52;;;11.80;74.70;;;;;;4931798;29;20036;-79
2022/03/17 10:48:56;;;;;;;32.03;27.15;;;11.60;74.80;;;;;;4935857;29;20031;-78
2022/03/17 10:51:33;;;;;;;29.60;26.40;;;11.60;75.50;;;;;;4929509;29;20044;-77
2022/03/17 10:54:08;;;;;;;27.42;24.65;;;11.50;74.00;;;;;;4927395;29;20035;-77
2022/03/17 10:56:36;;;;;;;27.38;24.33;;;11.50;75.10;;;;;;4932624;29;20382;-82
2022/03/17 10:59:05;;;;;;;29.00;25.65;;;11.40;75.10;;;;;;4929563;29;20032;-78
2022/03/17 11:01:42;;;;;;;32.13;28.73;;;11.50;76.10;;;;;;4932337;29;20504;-78
2022/03/17 11:04:11;;;;;;;29.77;26.80;;;11.50;75.90;;;;;;4928914;29;20493;-77
2022/03/17 11:06:39;;;;;;;30.58;27.48;;;11.30;76.70;;;;;;4927801;28;20378;-77
2022/03/17 11:09:09;;;;;;;28.75;25.83;;;11.20;77.60;;;;;;4930867;29;20032;-77
2022/03/17 11:11:39;;;;;;;29.98;26.95;;;11.20;77.00;;;;;;4932475;29;20043;-77
2022/03/17 11:14:06;;;;;;;32.53;28.08;;;11.20;76.50;;;;;;4908842;29;20044;-77
2022/03/17 11:16:46;;;;;;;29.98;26.90;;;11.20;77.20;;;;;;4932641;29;20044;-77
2022/03/17 11:19:20;;;;;;;30.98;27.83;;;11.20;77.20;;;;;;4937051;29;20728;-78
2022/03/17 11:21:49;;;;;;;31.63;28.45;;;11.30;77.90;;;;;;4928235;29;20047;-77
2022/03/17 11:24:20;;;;;;;32.13;29.00;;;11.20;78.80;;;;;;4929762;29;20054;-77
2022/03/17 11:26:47;;;;;;;30.45;27.13;;;11.30;79.00;;;;;;4927107;29;20039;-78
2022/03/17 11:29:18;;;;;;;31.63;28.30;;;11.30;79.50;;;;;;4933453;29;20047;-78
2022/03/17 11:32:02;;;;;;;;;;;11.40;79.90;;;;;;4930608;29;20039;-79
2022/03/17 11:34:48;;;;;;;30.15;27.27;;;11.50;79.50;;;;;;4928547;29;19914;-78
2022/03/17 11:37:20;;;;;;;28.48;25.45;;;11.50;79.60;;;;;;4927249;29;20035;-79
2022/03/17 11:39:56;;;;;;;34.35;26.85;;;11.40;78.60;;;;;;4933583;29;20044;-77
2022/03/17 11:42:39;;;;;;;30.35;26.67;;;11.30;77.80;;;;;;4932331;29;20042;-79
2022/03/17 11:45:14;;;;;;;31.02;28.10;;;11.20;78.20;;;;;;4934396;29;20028;-78
2022/03/17 11:47:45;;;;;;;28.67;25.92;;;11.30;78.20;;;;;;4932007;29;20504;-79
2022/03/17 11:50:21;;;;;;;32.17;27.35;;;11.40;77.20;;;;;;4928118;29;20040;-80
2022/03/17 11:52:56;;;;;;;28.73;25.35;;;11.20;77.40;;;;;;4935168;29;20413;-77
2022/03/17 11:55:42;;;;;;;29.80;26.52;;;11.30;77.40;;;;;;4930788;29;20390;-77
2022/03/17 11:58:33;;;;;;;30.73;26.55;;;11.30;77.30;;;;;;4925422;29;20040;-77
2022/03/17 12:01:05;;;;;;;30.27;27.00;;;11.20;76.90;;;;;;4926595;29;20401;-77
2022/03/17 12:03:46;;;;;;;29.88;26.80;;;11.00;77.70;;;;;;4933473;28;20051;-76
2022/03/17 12:06:16;;;;;;;29.15;26.02;;;11.00;78.20;;;;;;4933952;29;20043;-78
2022/03/17 12:08:51;;;;;;;28.15;24.98;;;10.90;80.20;;;;;;4934906;28;20047;-77
2022/03/17 12:11:22;;;;;;;29.13;24.70;;;10.90;81.20;;;;;;4931341;29;20393;-77
2022/03/17 12:14:18;;;;;;;26.52;23.65;;;10.90;82.00;;;;;;4931692;29;20477;-76
2022/03/17 12:16:59;;;;;;;31.85;25.45;;;10.80;82.00;;;;;;4886742;29;20066;-77
2022/03/17 12:19:27;;;;;;;;;;;10.80;81.70;;;;;;4931705;29;20402;-77
2022/03/17 12:22:01;;;;;;;29.85;26.52;;;10.70;80.30;;;;;;4934808;29;20332;-77
2022/03/17 12:24:35;;;;;;;32.05;28.52;;;10.60;79.80;;;;;;4932872;29;20028;-76
2022/03/17 12:27:29;;;;;;;31.40;26.58;;;10.60;80.10;;;;;;4933890;29;20047;-77
2022/03/17 12:30:04;;;;;;;29.65;25.35;;;10.70;80.50;;;;;;4934914;29;20385;-78
2022/03/17 12:32:36;;;;;;;31.92;28.52;;;10.70;80.50;;;;;;4928856;29;20321;-77
2022/03/17 12:35:03;;;;;;;35.03;29.85;;;10.70;81.20;;;;;;4929807;29;20469;-78
2022/03/17 12:37:32;;;;;;;33.75;30.20;;;10.70;81.90;;;;;;4932946;29;20485;-76
2022/03/17 12:40:02;;;;;;;34.50;31.10;;;10.60;82.30;;;;;;4933907;29;20043;-79
2022/03/17 12:42:40;;;;;;;32.42;29.23;;;10.60;82.90;;;;;;4932344;29;20040;-76
2022/03/17 12:45:09;;;;;;;34.28;28.50;;;10.60;83.30;;;;;;4930033;29;20032;-77
2022/03/17 12:47:37;;;;;;;32.33;29.17;;;10.60;83.80;;;;;;4934099;29;20044;-77
2022/03/17 12:50:11;;;;;;;30.92;27.88;;;10.70;84.50;;;;;;4934301;29;20040;-77
2022/03/17 12:52:40;;;;;;;30.08;27.13;;;10.70;84.70;;;;;;4934310;29;20038;-79
2022/03/17 12:55:09;;;;;;;31.30;27.00;;;10.60;85.30;;;;;;4931161;29;20377;-79
2022/03/17 12:57:39;;;;;;;28.75;25.55;;;10.50;86.40;;;;;;4929185;29;20038;-77
2022/03/17 13:00:16;;;;;;;30.83;25.60;;;10.40;88.50;;;;;;4932195;29;20413;-76
2022/03/17 13:02:55;;;;;;;26.88;24.02;;;10.50;89.00;;;;;;4934636;29;20036;-77